Time;durP1;ratioP1;P1;durP2;ratioP2;P2;SDS_P1;SDS_P2;PMS_P1;PMS_P2;Temp;Humidity;BMP_temperature;BMP_pressure;BME280_temperature;BME280_humidity;BME280_pressure;Samples;Min_cycle;Max_cycle;Signal;HPM_P1;HPM_P2
2021/08/04 00:02:42;;;;;;;4.30;2.58;;;;;;;15.52;74.65;100051.98;2091484;83;29951;-58
2021/08/04 00:05:45;;;;;;;4.33;3.08;;;;;;;15.50;74.58;100047.56;2094931;85;32010;-58
2021/08/04 00:08:46;;;;;;;3.15;2.85;;;;;;;15.48;74.50;100037.36;2093674;85;33844;-58
2021/08/04 00:11:49;;;;;;;3.25;2.60;;;;;;;15.49;74.66;100051.73;2076053;85;29080;-58
2021/08/04 00:14:51;;;;;;;5.62;3.05;;;;;;;15.49;74.75;100047.19;2064937;86;27720;-58
2021/08/04 00:17:53;;;;;;;4.08;2.90;;;;;;;15.48;74.83;100045.45;2066504;86;29058;-58
2021/08/04 00:20:55;;;;;;;6.55;2.98;;;;;;;15.50;74.98;100050.27;2075845;84;31086;-58
2021/08/04 00:23:58;;;;;;;4.53;3.17;;;;;;;15.52;74.96;100054.22;2101236;84;32392;-58
2021/08/04 00:27:01;;;;;;;8.68;3.75;;;;;;;15.53;75.00;100049.19;2101033;84;30232;-59
2021/08/04 00:30:05;;;;;;;4.78;2.77;;;;;;;15.55;74.89;100040.49;2101056;84;27681;-58
2021/08/04 00:33:07;;;;;;;3.95;3.55;;;;;;;15.52;74.78;100038.48;2066694;86;28723;-58
2021/08/04 00:36:09;;;;;;;5.72;3.40;;;;;;;15.47;74.72;100030.23;2066413;86;32005;-58
2021/08/04 00:39:11;;;;;;;3.87;3.33;;;;;;;15.48;74.89;100029.77;2066466;86;33752;-58
2021/08/04 00:42:18;;;;;;;4.67;2.75;;;;;;;15.49;74.80;100024.74;2066157;86;30154;-58
2021/08/04 00:45:20;;;;;;;5.10;2.95;;;;;;;15.52;75.05;100039.37;2065837;86;27743;-58
2021/08/04 00:48:23;;;;;;;6.45;3.30;;;;;;;15.54;75.05;100027.09;2066292;86;28660;-58
2021/08/04 00:51:25;;;;;;;6.00;3.40;;;;;;;15.55;75.20;100025.64;2066478;86;31913;-58
2021/08/04 00:54:28;;;;;;;3.92;3.27;;;;;;;15.57;75.14;100035.81;2072436;85;33769;-58
2021/08/04 00:57:29;;;;;;;3.83;3.12;;;;;;;15.58;75.35;100022.69;2108136;84;29015;-58
2021/08/04 01:00:31;;;;;;;5.58;3.67;;;;;;;15.58;75.24;100024.54;2131351;83;27667;-58
2021/08/04 01:03:39;;;;;;;4.97;3.80;;;;;;;15.59;75.12;100023.06;2100797;83;29865;-58
2021/08/04 01:06:55;;;;;;;5.45;3.77;;;;;;;15.59;75.10;100018.16;2101274;84;31191;-58
2021/08/04 01:10:11;;;;;;;5.85;3.87;;;;;;;15.60;75.25;100019.89;2095837;84;33130;-58
2021/08/04 01:13:40;;;;;;;6.28;3.67;;;;;;;15.61;75.19;100013.01;2100537;84;30063;-58
2021/08/04 01:16:44;;;;;;;9.30;3.67;;;;;;;15.61;75.31;100011.66;2101376;84;27637;-58
2021/08/04 01:19:54;;;;;;;7.80;3.67;;;;;;;15.62;75.36;100009.34;2089026;84;28674;-58
2021/08/04 01:23:34;;;;;;;8.40;4.00;;;;;;;15.64;75.39;100003.33;2065684;86;31049;-58
2021/08/04 01:26:43;;;;;;;10.50;4.37;;;;;;;15.60;75.46;100003.19;2066087;86;33069;-58
2021/08/04 01:29:45;;;;;;;6.80;4.50;;;;;;;15.60;75.34;100003.69;2072908;84;29190;-58
2021/08/04 01:32:48;;;;;;;6.60;3.90;;;;;;;15.58;75.35;100006.98;2101287;84;27779;-58
2021/08/04 01:35:52;;;;;;;7.75;3.72;;;;;;;15.55;75.37;100007.22;2101246;84;28639;-58
2021/08/04 01:38:56;;;;;;;5.20;3.72;;;;;;;15.55;75.45;99998.64;2101135;84;30982;-58
2021/08/04 01:41:59;;;;;;;4.17;3.75;;;;;;;15.53;75.49;100010.52;2041196;86;32960;-58
2021/08/04 01:45:03;;;;;;;10.13;4.42;;;;;;;15.49;75.47;100012.59;2066106;86;29079;-58
2021/08/04 01:48:07;;;;;;;8.75;4.22;;;;;;;15.47;75.48;100016.73;2066639;86;27737;-58
2021/08/04 01:51:12;;;;;;;8.58;4.60;;;;;;;15.47;75.60;100019.94;2066294;86;29648;-58
2021/08/04 01:54:13;;;;;;;;;;;;;;;15.47;75.61;100015.89;2068560;86;30365;-58
2021/08/04 01:57:15;;;;;;;8.68;5.08;;;;;;;15.47;75.59;100007.80;2040637;86;34237;-58
2021/08/04 02:00:18;;;;;;;5.15;4.30;;;;;;;15.43;75.63;100009.87;2066011;86;30087;-58
2021/08/04 02:03:20;;;;;;;8.35;4.85;;;;;;;15.42;75.73;100008.61;2066452;86;27603;-60
2021/08/04 02:06:49;;;;;;;5.47;4.28;;;;;;;15.41;75.80;100010.47;2080862;84;29908;-58
2021/08/04 02:09:54;;;;;;;8.38;4.95;;;;;;;15.44;75.90;100007.55;2100697;84;32347;-58
2021/08/04 02:13:05;;;;;;;;;;;;;;;15.42;75.81;100002.75;2102912;84;32946;-58
2021/08/04 02:16:30;;;;;;;7.97;4.87;;;;;;;15.38;75.79;99999.89;2091598;84;30769;-58
2021/08/04 02:19:40;;;;;;;8.28;5.15;;;;;;;15.31;75.77;100000.84;2062014;86;27716;-58
2021/08/04 02:23:00;;;;;;;12.78;4.92;;;;;;;15.29;76.02;100001.94;2067051;86;28645;-58
2021/08/04 02:26:15;;;;;;;6.05;4.20;;;;;;;15.26;75.93;100000.31;2066035;86;31055;-58
2021/08/04 02:29:19;;;;;;;7.35;4.22;;;;;;;15.23;76.05;99999.69;2068353;84;33003;-58
2021/08/04 02:32:22;;;;;;;5.65;4.15;;;;;;;15.21;75.97;100001.16;2101725;84;29781;-58
2021/08/04 02:35:25;;;;;;;5.25;4.20;;;;;;;15.17;76.01;99998.31;2101718;84;27640;-58
2021/08/04 02:38:30;;;;;;;6.40;4.15;;;;;;;15.16;76.05;100003.33;2101608;84;29048;-58
2021/08/04 02:41:33;;;;;;;6.72;4.53;;;;;;;15.11;76.39;99996.93;2101385;84;32010;-60
2021/08/04 02:44:35;;;;;;;7.53;4.40;;;;;;;15.08;76.18;100004.37;2068388;84;34067;-58
2021/08/04 02:47:38;;;;;;;10.88;3.95;;;;;;;15.05;76.11;100008.16;2066296;86;30346;-59
2021/08/04 02:50:46;;;;;;;4.72;3.98;;;;;;;15.04;76.29;100004.62;2098773;83;27708;-59
2021/08/04 02:53:56;;;;;;;5.53;4.05;;;;;;;15.02;76.42;100003.87;2113199;83;29525;-59
2021/08/04 02:56:58;;;;;;;6.35;3.98;;;;;;;14.99;76.28;100009.48;2101034;84;31081;-58
2021/08/04 03:00:01;;;;;;;8.58;4.83;;;;;;;15.02;76.43;100018.70;2101318;84;33815;-59
2021/08/04 03:03:03;;;;;;;5.53;4.00;;;;;;;15.02;76.23;100017.36;2094191;84;30293;-59
2021/08/04 03:06:06;;;;;;;6.95;4.33;;;;;;;15.01;76.23;100018.80;2066928;85;27709;-59
2021/08/04 03:09:08;;;;;;;4.58;3.40;;;;;;;15.03;76.39;100026.30;2097847;84;29527;-59
2021/08/04 03:12:10;;;;;;;5.08;4.58;;;;;;;15.04;76.59;100022.16;2101573;84;32065;-59
2021/08/04 03:15:12;;;;;;;5.30;3.85;;;;;;;15.06;76.37;100026.58;2089594;84;32742;-59
2021/08/04 03:18:14;;;;;;;7.33;4.40;;;;;;;15.06;76.38;100024.73;2101856;84;29890;-59
2021/08/04 03:21:21;;;;;;;5.22;4.33;;;;;;;15.07;76.39;100026.92;2101822;83;27660;-61
2021/08/04 03:24:26;;;;;;;7.85;4.62;;;;;;;15.07;76.37;100029.62;2100249;84;28726;-59
2021/08/04 03:27:29;;;;;;;6.15;4.30;;;;;;;15.08;76.53;100027.30;2099597;84;31014;-59
2021/08/04 03:30:33;;;;;;;9.75;4.28;;;;;;;15.08;76.54;100030.00;2100098;84;34458;-59
2021/08/04 03:33:37;;;;;;;4.83;3.83;;;;;;;15.09;76.63;100031.72;2101857;83;29892;-59
2021/08/04 03:36:39;;;;;;;8.30;4.08;;;;;;;15.12;76.71;100031.03;2101902;84;27635;-59
2021/08/04 03:39:42;;;;;;;5.45;3.62;;;;;;;15.15;76.76;100030.78;2101220;84;28893;-59
2021/08/04 03:42:45;;;;;;;7.27;4.27;;;;;;;15.17;76.76;100026.64;2101667;84;31927;-59
2021/08/04 03:45:46;;;;;;;6.90;4.80;;;;;;;15.19;76.76;100028.25;2093335;84;33371;-61
2021/08/04 03:48:48;;;;;;;6.37;4.33;;;;;;;15.21;76.73;100032.67;2066956;85;30301;-61
2021/08/04 03:51:50;;;;;;;6.62;4.05;;;;;;;15.23;76.73;100037.47;2066673;86;28336;-59
2021/08/04 03:54:53;;;;;;;7.17;4.83;;;;;;;15.26;76.78;100034.55;2068405;84;29543;-58
2021/08/04 03:57:56;;;;;;;6.80;4.22;;;;;;;15.27;76.80;100041.17;2066693;85;32024;-59
2021/08/04 04:01:01;;;;;;;5.72;4.85;;;;;;;15.29;76.77;100043.78;2068961;84;33124;-59
2021/08/04 04:04:04;;;;;;;9.05;5.22;;;;;;;15.31;76.83;100040.45;2067393;86;29020;-59
2021/08/04 04:07:19;;;;;;;7.00;4.50;;;;;;;15.34;76.81;100045.62;2068946;84;28262;-59
2021/08/04 04:10:17;;;;;;;5.45;4.08;;;;;;;15.37;76.86;100048.61;2084093;84;27626;-59
2021/08/04 04:13:23;;;;;;;4.60;4.12;;;;;;;15.40;76.87;100059.15;2066593;85;31065;-62
2021/08/04 04:16:26;;;;;;;4.45;3.25;;;;;;;15.42;76.90;100057.20;2100838;84;34148;-59
2021/08/04 04:19:32;;;;;;;6.22;4.25;;;;;;;15.46;76.95;100058.71;2101362;84;29917;-59
2021/08/04 04:22:38;;;;;;;6.22;4.53;;;;;;;15.50;77.06;100062.91;2099462;84;27659;-59
2021/08/04 04:25:41;;;;;;;5.87;4.70;;;;;;;15.55;77.04;100066.61;2101315;84;28687;-61
2021/08/04 04:28:45;;;;;;;7.30;5.12;;;;;;;15.59;77.04;100072.17;2101357;84;32246;-59
2021/08/04 04:31:48;;;;;;;14.47;4.80;;;;;;;15.62;77.03;100061.99;2072984;84;33040;-58
2021/08/04 04:34:51;;;;;;;6.35;4.20;;;;;;;15.66;76.91;100068.02;2066902;86;29791;-58
2021/08/04 04:37:54;;;;;;;6.50;4.53;;;;;;;15.71;76.88;100076.64;2068649;84;27860;-59
2021/08/04 04:40:57;;;;;;;6.53;4.45;;;;;;;15.75;76.96;100075.92;2066689;86;29598;-59
2021/08/04 04:44:01;;;;;;;7.78;4.40;;;;;;;15.79;76.93;100083.70;2066896;86;31940;-59
2021/08/04 04:47:04;;;;;;;6.78;5.35;;;;;;;15.86;77.04;100084.59;2067089;86;33750;-59
2021/08/04 04:50:08;;;;;;;7.97;5.35;;;;;;;15.92;77.13;100089.05;2067151;84;29036;-59
2021/08/04 04:53:11;;;;;;;9.78;6.78;;;;;;;15.98;77.13;100097.17;2067097;86;27725;-59
2021/08/04 04:56:15;;;;;;;11.55;6.42;;;;;;;16.03;77.12;100092.29;2079363;84;29514;-59
2021/08/04 04:59:19;;;;;;;10.87;6.50;;;;;;;16.09;77.17;100087.78;2101927;84;31035;-59
2021/08/04 05:02:22;;;;;;;9.45;6.15;;;;;;;16.15;77.09;100093.67;2101696;84;36700;-59
2021/08/04 05:05:25;;;;;;;10.90;6.37;;;;;;;16.20;77.00;100099.59;2099210;84;29059;-59
2021/08/04 05:08:28;;;;;;;7.12;6.33;;;;;;;16.25;76.98;100097.41;2096021;84;28292;-60
2021/08/04 05:11:34;;;;;;;7.10;6.10;;;;;;;16.31;77.03;100096.08;2066783;86;28714;-59
2021/08/04 05:14:40;;;;;;;7.00;6.12;;;;;;;16.35;77.05;100102.98;2100452;83;31978;-60
2021/08/04 05:17:47;;;;;;;9.55;6.25;;;;;;;16.39;77.08;100102.61;2136388;83;33647;-59
2021/08/04 05:20:50;;;;;;;7.03;5.62;;;;;;;16.42;77.02;100104.20;2111301;83;29082;-59
2021/08/04 05:23:53;;;;;;;7.33;5.65;;;;;;;16.45;77.00;100095.86;2100713;84;27491;-58
2021/08/04 05:26:55;;;;;;;11.22;8.38;;;;;;;16.48;77.01;100095.63;2098371;84;29907;-58
2021/08/04 05:29:59;;;;;;;8.55;6.97;;;;;;;16.49;76.92;100095.13;2066361;86;31161;-59
2021/08/04 05:33:01;;;;;;;9.90;6.28;;;;;;;16.52;77.03;100103.88;2065963;86;34206;-59
2021/08/04 05:36:04;;;;;;;7.22;6.53;;;;;;;16.55;76.89;100100.06;2066175;86;30162;-59
2021/08/04 05:39:07;;;;;;;9.35;6.35;;;;;;;16.55;76.85;100098.72;2088152;84;27739;-59
2021/08/04 05:42:12;;;;;;;7.65;6.00;;;;;;;16.56;76.82;100089.12;2100761;84;27728;-58
2021/08/04 05:45:16;;;;;;;9.98;6.08;;;;;;;16.61;76.95;100097.37;2099699;84;31020;-59
2021/08/04 05:48:20;;;;;;;10.90;6.95;;;;;;;16.63;76.93;100096.25;2079963;84;33105;-59
2021/08/04 05:51:22;;;;;;;9.93;6.62;;;;;;;16.65;76.93;100092.94;2074473;84;28281;-58
2021/08/04 05:54:29;;;;;;;9.85;7.33;;;;;;;16.67;76.92;100094.19;2065720;86;27710;-59
2021/08/04 05:57:36;;;;;;;11.53;8.05;;;;;;;16.67;76.78;100093.69;2066076;86;28217;-59
2021/08/04 06:00:40;;;;;;;11.53;8.25;;;;;;;16.68;76.96;100099.47;2065933;86;31787;-59
2021/08/04 06:03:43;;;;;;;16.15;9.15;;;;;;;16.69;77.24;100090.38;2068351;84;33140;-59
2021/08/04 06:06:46;;;;;;;13.72;7.50;;;;;;;16.69;77.08;100091.73;2091673;84;29087;-59
2021/08/04 06:09:51;;;;;;;8.95;7.90;;;;;;;16.65;76.87;100089.39;2100787;84;28150;-59
2021/08/04 06:12:57;;;;;;;10.93;7.60;;;;;;;16.64;77.16;100089.02;2100092;84;29906;-64
2021/08/04 06:16:00;;;;;;;8.45;7.17;;;;;;;16.65;77.05;100088.88;2098089;84;31135;-65
2021/08/04 06:19:04;;;;;;;7.12;6.08;;;;;;;16.67;77.34;100092.33;2099832;83;33121;-62
2021/08/04 06:22:07;;;;;;;12.43;6.35;;;;;;;16.66;77.04;100094.66;2100822;84;29110;-62
2021/08/04 06:25:14;;;;;;;9.60;6.03;;;;;;;16.70;77.30;100091.25;2100627;84;28125;-62
2021/08/04 06:28:18;;;;;;;9.38;5.75;;;;;;;16.75;77.23;100095.78;2067395;84;29501;-62
2021/08/04 06:31:21;;;;;;;7.93;6.47;;;;;;;16.81;77.31;100093.08;2091588;84;32261;-61
2021/08/04 06:34:24;;;;;;;6.17;5.55;;;;;;;16.84;77.11;100098.25;2100218;84;33802;-63
2021/08/04 06:37:28;;;;;;;7.15;6.10;;;;;;;16.86;76.99;100099.00;2099044;84;29053;-62
2021/08/04 06:40:30;;;;;;;8.30;6.22;;;;;;;16.86;76.99;100099.00;2101341;84;27696;-62
2021/08/04 06:43:33;;;;;;;8.08;6.50;;;;;;;16.87;76.93;100103.43;2101610;84;28628;-61
2021/08/04 06:46:37;;;;;;;8.10;7.25;;;;;;;16.93;77.01;100107.48;2101292;84;31952;-62
2021/08/04 06:49:40;;;;;;;9.95;6.45;;;;;;;17.00;77.22;100099.30;2101896;84;33770;-62
2021/08/04 06:52:45;;;;;;;10.75;8.40;;;;;;;17.08;77.08;100096.81;2099604;84;29966;-64
2021/08/04 06:55:49;;;;;;;10.78;6.65;;;;;;;17.15;76.94;100094.47;2101741;84;27805;-63
2021/08/04 06:58:51;;;;;;;9.38;8.33;;;;;;;17.23;76.72;100101.50;2099903;84;29489;-64
2021/08/04 07:02:01;;;;;;;9.15;7.53;;;;;;;17.27;76.52;100101.63;2100109;84;31289;-63
2021/08/04 07:05:06;;;;;;;14.00;7.03;;;;;;;17.33;76.45;100108.38;2099044;84;33102;-58
2021/08/04 07:08:18;;;;;;;15.25;7.67;;;;;;;17.42;76.44;100113.55;2039848;85;29866;-58
2021/08/04 07:11:25;;;;;;;8.15;6.55;;;;;;;17.54;76.72;100112.53;2106360;84;27847;-58
2021/08/04 07:14:29;;;;;;;6.17;5.33;;;;;;;17.74;76.85;100120.86;2101055;84;27723;-64
2021/08/04 07:17:42;;;;;;;8.60;4.53;;;;;;;17.97;77.01;100130.27;2088928;85;31705;-64
2021/08/04 07:21:35;;;;;;;10.78;5.03;;;;;;;18.18;76.68;100126.30;2019369;86;33025;-65
2021/08/04 07:24:03;;;;;;;6.05;5.17;;;;;;;18.37;76.33;100122.87;1992077;87;27785;-64
2021/08/04 07:27:07;;;;;;;5.97;4.87;;;;;;;18.61;76.25;100127.19;2053340;86;27673;-65
2021/08/04 07:30:12;;;;;;;6.30;5.35;;;;;;;18.87;76.13;100125.41;2053359;86;28644;-66
2021/08/04 07:33:18;;;;;;;5.65;5.10;;;;;;;19.12;76.10;100126.33;2054442;86;31734;-65
2021/08/04 07:36:22;;;;;;;12.70;4.92;;;;;;;19.40;75.59;100118.45;2071916;85;32962;-64
2021/08/04 07:39:27;;;;;;;8.05;5.37;;;;;;;19.71;75.26;100120.23;2048561;85;27765;-67
2021/08/04 07:42:31;;;;;;;6.10;5.50;;;;;;;20.12;74.80;100123.75;2058534;85;27773;-66
2021/08/04 07:45:35;;;;;;;7.90;4.97;;;;;;;20.49;74.29;100124.39;2050994;85;28772;-66
2021/08/04 07:48:38;;;;;;;9.78;4.45;;;;;;;21.10;73.72;100120.02;2038192;87;31686;-67
2021/08/04 07:51:43;;;;;;;8.55;4.40;;;;;;;21.69;73.91;100119.25;2037523;87;33073;-66
2021/08/04 07:54:46;;;;;;;;;;;;;;;22.26;72.85;100118.13;2058580;84;29111;-66
2021/08/04 07:57:53;;;;;;;7.28;4.42;;;;;;;22.75;72.18;100121.76;2067003;85;27772;-67
2021/08/04 08:00:59;;;;;;;5.92;3.70;;;;;;;23.08;71.01;100118.39;2070541;85;28700;-66
2021/08/04 08:04:05;;;;;;;7.80;4.33;;;;;;;23.32;70.38;100123.15;2026762;87;31703;-65
2021/08/04 08:07:28;;;;;;;8.33;3.98;;;;;;;23.74;69.72;100117.84;2038148;87;34831;-65
2021/08/04 08:10:40;;;;;;;5.35;3.72;;;;;;;24.10;68.48;100126.66;2101071;84;29622;-67
2021/08/04 08:13:43;;;;;;;6.25;4.03;;;;;;;24.47;68.35;100121.70;2098991;84;27840;-66
2021/08/04 08:16:45;;;;;;;4.00;3.65;;;;;;;24.62;66.74;100121.87;2108289;84;28628;-66
2021/08/04 08:19:47;;;;;;;6.10;3.35;;;;;;;25.10;66.60;100121.13;2108332;84;32000;-65
2021/08/04 08:22:50;;;;;;;4.47;3.62;;;;;;;25.76;66.57;100120.88;2106738;84;33859;-67
2021/08/04 08:25:52;;;;;;;3.92;3.30;;;;;;;26.41;65.25;100121.48;2077709;84;29065;-68
2021/08/04 08:28:54;;;;;;;4.62;3.20;;;;;;;26.70;62.97;100118.46;2073955;85;27579;-68
2021/08/04 08:31:56;;;;;;;4.58;3.30;;;;;;;26.69;62.64;100112.63;2074822;84;28636;-66
2021/08/04 08:34:57;;;;;;;4.72;3.77;;;;;;;26.67;61.34;100121.08;2072017;85;31022;-68
2021/08/04 08:38:00;;;;;;;3.72;2.80;;;;;;;26.76;61.83;100120.98;2073260;85;32948;-65
2021/08/04 08:41:01;;;;;;;3.95;3.22;;;;;;;27.05;61.31;100122.11;2075189;84;29224;-65
2021/08/04 08:44:06;;;;;;;3.80;3.00;;;;;;;27.11;59.98;100115.33;2073340;85;27633;-66
2021/08/04 08:47:10;;;;;;;5.40;3.17;;;;;;;27.09;59.89;100121.53;2072038;85;28667;-67
2021/08/04 08:50:15;;;;;;;3.47;2.92;;;;;;;27.22;59.27;100114.51;2072237;84;30898;-65
2021/08/04 08:53:21;;;;;;;3.08;2.77;;;;;;;27.39;58.31;100113.27;2039717;85;33120;-67
2021/08/04 08:56:28;;;;;;;2.72;2.52;;;;;;;27.71;58.22;100108.39;2108086;84;29853;-66
2021/08/04 08:59:34;;;;;;;3.15;2.85;;;;;;;27.75;56.92;100110.23;2103601;84;27700;-66
2021/08/04 09:02:41;;;;;;;6.17;2.70;;;;;;;27.67;56.92;100114.48;2108202;84;28616;-66
2021/08/04 09:05:50;;;;;;;3.47;2.75;;;;;;;27.77;56.73;100112.27;2048960;85;31688;-66
2021/08/04 09:08:56;;;;;;;4.08;3.05;;;;;;;27.68;56.24;100117.03;2069179;85;33850;-65
2021/08/04 09:12:12;;;;;;;4.83;2.85;;;;;;;27.88;55.45;100104.87;2108264;84;29702;-70
2021/08/04 09:15:32;;;;;;;4.75;2.60;;;;;;;28.08;56.05;100104.23;2107155;84;27716;-65
2021/08/04 09:18:52;;;;;;;3.85;2.08;;;;;;;28.21;55.13;100113.19;2107919;84;28646;-66
2021/08/04 09:22:22;;;;;;;2.37;2.20;;;;;;;28.52;55.18;100104.25;2107672;84;31028;-65
2021/08/04 09:25:26;;;;;;;3.67;1.98;;;;;;;28.59;53.01;100106.01;2106904;84;33685;-66
2021/08/04 09:28:31;;;;;;;3.58;2.17;;;;;;;28.79;53.23;100104.80;2107952;84;27623;-64
2021/08/04 09:31:46;;;;;;;7.45;2.30;;;;;;;28.64;52.82;100099.89;2045890;85;27705;-67
2021/08/04 09:34:48;;;;;;;2.10;1.90;;;;;;;28.35;52.19;100100.41;2046602;85;28658;-69
2021/08/04 09:37:50;;;;;;;2.35;2.00;;;;;;;28.05;52.17;100100.48;2108302;84;31035;-67
2021/08/04 09:41:15;;;;;;;4.37;1.60;;;;;;;28.03;52.90;100099.31;2112374;83;33743;-67
2021/08/04 09:44:17;;;;;;;2.25;1.50;;;;;;;28.12;51.78;100099.23;2115085;83;29823;-67
2021/08/04 09:47:22;;;;;;;2.65;1.92;;;;;;;28.09;51.10;100089.95;2115401;84;27658;-74
2021/08/04 09:50:24;;;;;;;1.57;1.47;;;;;;;28.00;51.34;100088.69;2115091;84;28702;-72
2021/08/04 09:53:31;;;;;;;2.05;1.65;;;;;;;27.83;50.01;100083.97;2087240;84;31939;-68
2021/08/04 09:56:33;;;;;;;1.62;1.50;;;;;;;27.78;51.14;100082.86;2079077;85;33849;-66
2021/08/04 09:59:36;;;;;;;2.22;1.55;;;;;;;27.66;49.83;100069.58;2108154;84;29020;-68
2021/08/04 10:02:38;;;;;;;1.65;1.55;;;;;;;27.41;50.72;100072.66;2114016;83;27739;-64
2021/08/04 10:05:44;;;;;;;2.15;1.50;;;;;;;27.32;50.69;100074.34;2098984;84;28676;-67
2021/08/04 10:08:47;;;;;;;3.20;1.30;;;;;;;27.33;50.92;100077.42;2079625;85;31010;-62
2021/08/04 10:11:50;;;;;;;1.20;1.20;;;;;;;27.26;49.42;100083.67;2110235;84;34369;-66
2021/08/04 10:14:53;;;;;;;1.70;1.57;;;;;;;27.04;49.14;100079.16;2112126;83;29073;-65
2021/08/04 10:17:56;;;;;;;1.37;1.27;;;;;;;26.99;49.02;100077.82;2115157;84;27635;-65
2021/08/04 10:21:07;;;;;;;1.22;0.98;;;;;;;27.06;49.53;100078.42;2108907;84;28269;-64
2021/08/04 10:24:12;;;;;;;1.32;1.22;;;;;;;27.19;49.02;100077.25;2079995;84;31046;-64
2021/08/04 10:27:14;;;;;;;1.92;1.45;;;;;;;27.31;49.07;100073.47;2079680;85;32976;-64
2021/08/04 10:30:16;;;;;;;2.60;1.37;;;;;;;27.42;49.05;100072.13;2079415;85;30240;-71
2021/08/04 10:33:19;;;;;;;3.12;1.62;;;;;;;27.54;48.56;100069.77;2081435;84;36160;-64
2021/08/04 10:36:24;;;;;;;1.67;1.50;;;;;;;27.62;46.77;100068.80;2078911;85;27760;-66
2021/08/04 10:39:26;;;;;;;1.25;1.15;;;;;;;27.64;48.67;100072.21;2079582;85;31254;-68
2021/08/04 10:42:45;;;;;;;1.47;1.30;;;;;;;27.78;47.21;100074.06;2094437;84;33785;-70
2021/08/04 10:45:47;;;;;;;1.40;1.30;;;;;;;27.66;46.88;100072.88;2108645;84;29243;-64
2021/08/04 10:48:50;;;;;;;1.62;1.30;;;;;;;27.71;46.92;100068.48;2108789;84;28289;-66
2021/08/04 10:52:00;;;;;;;1.30;1.20;;;;;;;27.85;46.15;100063.98;2101673;84;29531;-68
2021/08/04 10:55:06;;;;;;;1.20;1.10;;;;;;;28.00;47.16;100066.66;2085754;84;31838;-66
2021/08/04 10:58:08;;;;;;;1.35;1.20;;;;;;;28.20;46.71;100057.26;2066182;84;34075;-69
2021/08/04 11:01:28;;;;;;;1.22;1.20;;;;;;;28.05;45.31;100060.55;2093004;84;29949;-69
2021/08/04 11:04:50;;;;;;;1.50;1.40;;;;;;;27.98;45.31;100059.11;2106459;84;27670;-69
2021/08/04 11:08:16;;;;;;;1.80;1.37;;;;;;;27.93;45.61;100057.50;2107444;84;28782;-70
2021/08/04 11:11:57;;;;;;;1.72;1.47;;;;;;;27.80;45.48;100062.34;2106216;84;31861;-71
2021/08/04 11:15:01;;;;;;;1.67;1.30;;;;;;;27.71;45.74;100064.89;2070636;84;33021;-66
2021/08/04 11:18:09;;;;;;;1.20;1.10;;;;;;;27.74;46.30;100063.10;2082362;84;29663;-66
2021/08/04 11:21:14;;;;;;;1.50;1.40;;;;;;;27.68;45.96;100060.61;2108019;83;27623;-66
2021/08/04 11:24:15;;;;;;;;;;;;;;;27.43;44.26;100056.82;2086581;84;28852;-67
2021/08/04 11:27:17;;;;;;;4.45;1.37;;;;;;;27.11;44.94;100054.83;2071231;86;31819;-67
2021/08/04 11:30:32;;;;;;;1.40;1.30;;;;;;;26.92;43.81;100048.00;2107629;84;33922;-66
2021/08/04 11:33:35;;;;;;;1.30;1.20;;;;;;;26.55;44.70;100044.27;2096269;84;29087;-66
2021/08/04 11:36:36;;;;;;;1.22;1.20;;;;;;;26.31;44.95;100042.09;2073366;85;27717;-67
2021/08/04 11:40:02;;;;;;;3.22;1.52;;;;;;;25.89;44.70;100036.59;2073861;85;28812;-67
2021/08/04 11:43:04;;;;;;;1.60;1.17;;;;;;;25.53;45.28;100041.28;2073393;85;30671;-67
2021/08/04 11:46:06;;;;;;;2.08;1.47;;;;;;;25.17;45.36;100042.12;2072780;85;33799;-66
2021/08/04 11:49:15;;;;;;;1.75;1.40;;;;;;;24.87;45.20;100043.77;2038915;87;29021;-67
2021/08/04 11:52:23;;;;;;;1.35;1.25;;;;;;;24.70;46.46;100047.08;2095906;84;27811;-66
2021/08/04 11:55:28;;;;;;;1.60;1.50;;;;;;;24.61;46.09;100036.63;2095953;84;28643;-66
2021/08/04 11:58:30;;;;;;;3.25;1.40;;;;;;;24.59;47.51;100038.68;2073620;84;31877;-66
2021/08/04 12:01:32;;;;;;;1.00;1.00;;;;;;;24.65;47.78;100040.73;2073386;85;32948;-66
2021/08/04 12:04:43;;;;;;;3.75;1.22;;;;;;;24.63;47.12;100035.94;2073415;84;29211;-66
2021/08/04 12:07:47;;;;;;;1.17;1.07;;;;;;;24.57;47.57;100032.52;2092239;83;27956;-66
2021/08/04 12:10:52;;;;;;;1.40;1.10;;;;;;;24.52;47.53;100034.42;2067771;85;28674;-66
2021/08/04 12:14:03;;;;;;;;;;;;;;;24.52;47.72;100041.27;2069585;85;31064;-66
2021/08/04 12:17:06;;;;;;;1.52;1.22;;;;;;;24.55;47.87;100031.34;2031619;87;33810;-66
2021/08/04 12:20:22;;;;;;;3.77;1.30;;;;;;;24.52;48.20;100031.68;2069642;84;29039;-67
2021/08/04 12:23:24;;;;;;;2.52;1.35;;;;;;;24.60;48.35;100028.06;2072914;85;27700;-67
2021/08/04 12:26:26;;;;;;;1.47;1.00;;;;;;;24.68;48.17;100034.04;2073646;85;29682;-66
2021/08/04 12:29:27;;;;;;;1.30;1.20;;;;;;;24.64;48.24;100031.30;2072017;85;31032;-66
2021/08/04 12:32:32;;;;;;;2.55;1.30;;;;;;;24.63;48.41;100028.22;2075736;84;33815;-66
2021/08/04 12:36:09;;;;;;;1.72;1.05;;;;;;;24.62;48.02;100027.38;2070931;85;36860;-66
2021/08/04 12:39:10;;;;;;;3.02;1.82;;;;;;;24.57;48.40;100017.45;2073755;85;27726;-66
2021/08/04 12:42:13;;;;;;;1.70;1.60;;;;;;;24.54;48.69;100016.42;2072767;85;29540;-66
2021/08/04 12:45:24;;;;;;;2.42;1.40;;;;;;;24.60;48.51;100020.34;2106177;84;31295;-66
2021/08/04 12:48:47;;;;;;;1.75;1.37;;;;;;;24.54;48.80;100024.64;2109186;84;32972;-65
2021/08/04 12:51:56;;;;;;;1.30;1.20;;;;;;;24.53;49.00;100021.06;2103509;84;29043;-65
2021/08/04 12:55:11;;;;;;;1.32;1.22;;;;;;;24.55;49.02;100019.02;2073666;84;27660;-66
2021/08/04 12:58:13;;;;;;;1.37;1.27;;;;;;;24.64;49.15;100017.61;2105727;84;28728;-65
2021/08/04 13:01:20;;;;;;;1.90;1.55;;;;;;;24.70;49.21;100012.31;2108566;84;31742;-66
2021/08/04 13:04:31;;;;;;;1.52;1.42;;;;;;;24.77;49.31;100012.45;2071587;85;33816;-66
2021/08/04 13:07:43;;;;;;;3.35;1.57;;;;;;;24.87;49.02;100012.25;2071996;85;29077;-64
2021/08/04 13:10:50;;;;;;;1.50;1.40;;;;;;;24.95;48.95;100016.34;2077436;85;27940;-64
2021/08/04 13:14:02;;;;;;;1.75;1.20;;;;;;;25.07;48.76;100007.72;2053670;86;27653;-65
2021/08/04 13:17:10;;;;;;;2.45;1.60;;;;;;;25.20;49.56;100012.64;2058286;86;31036;-65
2021/08/04 13:20:34;;;;;;;3.05;1.70;;;;;;;25.37;50.09;100013.39;2047709;86;33125;-65
2021/08/04 13:23:36;;;;;;;2.25;1.22;;;;;;;25.51;50.29;100011.80;2058496;86;29075;-65
2021/08/04 13:26:38;;;;;;;1.37;1.27;;;;;;;25.59;50.23;100004.38;2058548;86;27747;-65
2021/08/04 13:29:40;;;;;;;4.15;1.20;;;;;;;25.67;50.05;100010.83;2038573;86;28729;-65
2021/08/04 13:32:42;;;;;;;1.00;1.00;;;;;;;25.63;49.65;100002.98;2058113;86;31099;-65
2021/08/04 13:35:46;;;;;;;1.72;1.20;;;;;;;25.61;49.15;99998.19;2036518;87;33793;-65
2021/08/04 13:38:48;;;;;;;1.05;1.00;;;;;;;25.61;49.07;99997.32;2058327;86;29041;-65
2021/08/04 13:41:50;;;;;;;2.75;1.17;;;;;;;25.57;48.63;99994.09;2038566;86;27641;-66
2021/08/04 13:44:52;;;;;;;1.47;1.07;;;;;;;25.53;48.50;99994.66;2058468;86;28668;-65
2021/08/04 13:47:54;;;;;;;1.37;1.22;;;;;;;25.49;48.43;100007.85;2036523;87;31063;-65
2021/08/04 13:50:56;;;;;;;1.45;1.20;;;;;;;25.50;48.65;100016.95;2066750;85;32983;-67
2021/08/04 13:53:59;;;;;;;1.35;1.25;;;;;;;25.57;48.71;100009.69;2070177;86;29969;-66
2021/08/04 13:57:02;;;;;;;3.95;1.15;;;;;;;25.67;48.66;99997.98;2071418;85;27647;-67
2021/08/04 14:00:07;;;;;;;1.82;1.30;;;;;;;25.73;48.57;99996.39;2070215;86;29690;-65
2021/08/04 14:03:09;;;;;;;1.50;1.40;;;;;;;25.71;48.28;99993.84;2090534;85;31756;-66
2021/08/04 14:06:11;;;;;;;1.40;1.30;;;;;;;25.66;47.63;99981.68;2070138;86;32996;-66
2021/08/04 14:09:13;;;;;;;3.40;1.50;;;;;;;25.47;48.23;99977.04;2092761;85;29118;-66
2021/08/04 14:12:17;;;;;;;2.47;1.60;;;;;;;25.38;48.36;99983.56;2060122;85;27746;-66
2021/08/04 14:15:22;;;;;;;3.58;2.72;;;;;;;25.22;48.51;99988.64;2073429;85;28681;-66
2021/08/04 14:18:24;;;;;;;1.40;1.30;;;;;;;25.16;49.14;99990.19;2073138;85;31056;-66
2021/08/04 14:21:27;;;;;;;1.42;1.15;;;;;;;25.13;49.01;99994.16;2071245;85;33779;-66
2021/08/04 14:24:29;;;;;;;1.60;1.50;;;;;;;25.09;49.22;99987.31;2072017;85;29134;-67
2021/08/04 14:27:32;;;;;;;1.65;1.37;;;;;;;25.08;49.25;99995.20;2073002;85;27661;-67